Observations for LONDON GATWICK ARPT, United Kingdom (EGKK)

EGKK 191950Z 22002KT CAVOK 08/07 Q1004  
EGKK 191920Z 24002KT CAVOK 09/08 Q1004  
EGKK 191850Z 24002KT CAVOK 10/07 Q1003  
EGKK 191820Z 21004KT CAVOK 10/08 Q1003  
EGKK 191750Z 22003KT CAVOK 10/08 Q1003  
EGKK 191720Z 22003KT 9999 FEW040 11/07 Q1003
EGKK 191650Z 23004KT 9999 FEW039 12/07 Q1002
EGKK 191620Z 24006KT 9999 FEW037 14/07 Q1002
EGKK 191550Z 24008KT 9999 FEW040 14/07 Q1002
EGKK 191520Z 22008KT 9999 FEW035 15/07 Q1002
EGKK 191450Z 23007KT 200V260 9999 FEW033 14/08 Q1001
EGKK 191420Z 23009KT 9999 FEW033 15/07 Q1001
EGKK 191350Z 24009KT 9999 FEW038 15/07 Q1001
EGKK 191320Z 25008KT 9999 FEW035 14/07 Q1001
EGKK 191250Z 24009KT 9999 FEW033 SCT039 14/07 Q1001 
EGKK 191220Z 25011KT 9999 FEW031 SCT036 15/08 Q1001 
EGKK 191150Z 22009KT 190V250 9999 SCT026 14/08 Q1001
EGKK 191120Z 24011KT 9999 FEW024 14/08 Q1001
EGKK 191050Z 23008KT 190V260 9999 FEW020 13/09 Q1001
EGKK 191020Z 21006KT 9999 FEW022 12/09 Q1000
EGKK 190950Z 23005KT 9999 FEW022 11/09 Q1000
EGKK 190920Z 23005KT 200V270 9999 FEW024TCU 11/09 Q1000 
EGKK 190850Z 22005KT 190V250 9999 FEW024CB 11/09 Q1000  
EGKK 190820Z VRB01KT 9999 FEW024CB 10/09 Q1000  
EGKK 190750Z VRB02KT CAVOK 09/09 Q1000  
EGKK 190720Z 17004KT CAVOK 09/09 Q0999  
EGKK 190650Z 19004KT CAVOK 09/09 Q0999  
EGKK 190620Z 17004KT CAVOK 09/09 Q0999  
EGKK 190550Z 17004KT CAVOK 10/09 Q0999  
EGKK 190520Z 16005KT 9999 FEW025 SCT049 10/09 Q0999 
EGKK 190450Z 15004KT 9999 FEW025 SCT032 10/09 Q0999 
EGKK 190420Z 15004KT 9999 FEW032 10/09 Q0999
EGKK 190350Z 16004KT 9999 FEW035 10/09 Q0999
EGKK 190320Z VRB03KT 9999 FEW025 11/09 Q0999
EGKK 190250Z 16004KT CAVOK 11/10 Q0999  
EGKK 190220Z VRB03KT 9999 FEW028 11/10 Q0999
EGKK 190150Z VRB03KT 9999 FEW025 10/09 Q0999
EGKK 190120Z 19006KT 9999 FEW025 11/09 Q0999
EGKK 190050Z 20010KT 9999 FEW020 11/09 Q0999
EGKK 190020Z 19007KT 9999 -RA FEW029 SCT037 11/09 Q0999 
EGKK 182350Z 19006KT 9999 -RA FEW022 SCT042 12/10 Q0999 
EGKK 182320Z 21007KT 9999 FEW018 SCT024 12/09 Q0999 
EGKK 182250Z 19004KT 150V230 9999 FEW023 SCT028 12/09 Q1000 
EGKK 182220Z 20006KT 9999 FEW042 12/09 Q1000
EGKK 182150Z 21009KT 9999 FEW042 12/09 Q1000
EGKK 182120Z 21007KT 170V260 9999 FEW026 12/09 Q1000
EGKK 182050Z 21009KT 190V250 9999 FEW028 12/09 Q1000
EGKK 182020Z 22010KT 9999 SCT032 13/08 Q1000
EGKK 181950Z 22010KT 9999 FEW048 13/08 Q1000
EGKK 181920Z 21008KT 9999 FEW030 12/08 Q1000